Mechanicsville, Maryland
Current Conditions -  °F | °C
As of 12:20 AM on Sunday 26 Oct 2014 (Local Time) from K2W6 Reporting Station
Clear Clear  
Wind Chill: 55°   Ceiling: Unl
Heat Index: 55°   Visibility: 10mi
Dew Point: 43°   Wind: 5mph
Humidity: 63%   Direction: 230°SW
Pressure: 29.74"   Gusts: NA
Location:  38.44°N, 76.74°W
Report Text: K2W6 260420Z AUTO 23004KT 10SM CLR 13/06 A2974 RMK AO1
Loading
Personal Weather Stations






























Interactive Weather Map
Tropical Storm Tracking
New forecast layout! Learn more

10-Day Weather Forecast

Advertisements
Track Severe Weather on mobile